sensor_id;sensor_type;location;lat;lon;timestamp;temperature;humidity
36374;DHT22;22399;51.346;12.372;2023-07-02T00:00:30;17.90;99.90
36374;DHT22;22399;51.346;12.372;2023-07-02T00:03:00;17.90;99.90
36374;DHT22;22399;51.346;12.372;2023-07-02T00:05:28;17.90;99.90
36374;DHT22;22399;51.346;12.372;2023-07-02T00:07:58;17.90;99.90
36374;DHT22;22399;51.346;12.372;2023-07-02T00:10:27;18.00;99.90
36374;DHT22;22399;51.346;12.372;2023-07-02T00:12:55;18.00;99.90
36374;DHT22;22399;51.346;12.372;2023-07-02T00:15:24;18.00;99.90
36374;DHT22;22399;51.346;12.372;2023-07-02T00:17:52;18.00;99.90
36374;DHT22;22399;51.346;12.372;2023-07-02T00:20:24;18.10;99.90
36374;DHT22;22399;51.346;12.372;2023-07-02T00:22:53;18.10;99.90
36374;DHT22;22399;51.346;12.372;2023-07-02T00:25:23;18.10;99.90
36374;DHT22;22399;51.346;12.372;2023-07-02T00:27:51;18.10;99.90
36374;DHT22;22399;51.346;12.372;2023-07-02T00:30:20;18.10;99.90
36374;DHT22;22399;51.346;12.372;2023-07-02T00:32:49;18.10;99.90
36374;DHT22;22399;51.346;12.372;2023-07-02T00:35:17;18.10;99.90
36374;DHT22;22399;51.346;12.372;2023-07-02T00:37:46;18.20;99.90
36374;DHT22;22399;51.346;12.372;2023-07-02T00:40:14;18.20;99.90
36374;DHT22;22399;51.346;12.372;2023-07-02T00:42:45;18.10;99.90
36374;DHT22;22399;51.346;12.372;2023-07-02T00:45:13;18.20;99.90
36374;DHT22;22399;51.346;12.372;2023-07-02T00:47:41;18.20;99.90
36374;DHT22;22399;51.346;12.372;2023-07-02T00:50:11;18.20;99.90
36374;DHT22;22399;51.346;12.372;2023-07-02T00:52:40;18.20;99.90
36374;DHT22;22399;51.346;12.372;2023-07-02T00:55:09;18.20;99.90
36374;DHT22;22399;51.346;12.372;2023-07-02T00:57:37;18.20;99.90
36374;DHT22;22399;51.346;12.372;2023-07-02T01:00:10;18.20;99.90
36374;DHT22;22399;51.346;12.372;2023-07-02T01:02:39;18.20;99.90
36374;DHT22;22399;51.346;12.372;2023-07-02T01:05:14;18.20;99.90
36374;DHT22;22399;51.346;12.372;2023-07-02T01:07:43;18.20;99.90
36374;DHT22;22399;51.346;12.372;2023-07-02T01:10:11;18.20;99.90
36374;DHT22;22399;51.346;12.372;2023-07-02T01:12:41;18.10;99.90
36374;DHT22;22399;51.346;12.372;2023-07-02T01:15:11;18.10;99.90
36374;DHT22;22399;51.346;12.372;2023-07-02T01:17:39;18.10;99.90
36374;DHT22;22399;51.346;12.372;2023-07-02T01:20:12;18.00;99.90
36374;DHT22;22399;51.346;12.372;2023-07-02T01:22:41;18.10;99.90
36374;DHT22;22399;51.346;12.372;2023-07-02T01:25:09;18.00;99.90
36374;DHT22;22399;51.346;12.372;2023-07-02T01:27:38;18.00;99.90
36374;DHT22;22399;51.346;12.372;2023-07-02T01:30:08;18.00;99.90
36374;DHT22;22399;51.346;12.372;2023-07-02T01:32:38;18.00;99.90
36374;DHT22;22399;51.346;12.372;2023-07-02T01:35:09;17.90;99.90
36374;DHT22;22399;51.346;12.372;2023-07-02T01:37:38;17.90;99.90
36374;DHT22;22399;51.346;12.372;2023-07-02T01:40:07;17.90;99.90
36374;DHT22;22399;51.346;12.372;2023-07-02T01:42:37;17.80;99.90
36374;DHT22;22399;51.346;12.372;2023-07-02T01:45:06;17.80;99.90
36374;DHT22;22399;51.346;12.372;2023-07-02T01:47:35;17.90;99.90
36374;DHT22;22399;51.346;12.372;2023-07-02T01:50:04;17.90;99.90
36374;DHT22;22399;51.346;12.372;2023-07-02T01:52:35;17.90;99.90
36374;DHT22;22399;51.346;12.372;2023-07-02T01:55:04;17.90;99.90
36374;DHT22;22399;51.346;12.372;2023-07-02T01:57:32;17.90;99.90
36374;DHT22;22399;51.346;12.372;2023-07-02T02:00:01;18.00;99.90
36374;DHT22;22399;51.346;12.372;2023-07-02T02:02:41;18.00;99.90
36374;DHT22;22399;51.346;12.372;2023-07-02T02:05:10;18.00;99.90
36374;DHT22;22399;51.346;12.372;2023-07-02T02:07:41;18.10;99.90
36374;DHT22;22399;51.346;12.372;2023-07-02T02:10:11;18.00;99.90
36374;DHT22;22399;51.346;12.372;2023-07-02T02:12:41;18.10;99.90
36374;DHT22;22399;51.346;12.372;2023-07-02T02:15:10;18.10;99.90
36374;DHT22;22399;51.346;12.372;2023-07-02T02:17:41;18.10;99.90
36374;DHT22;22399;51.346;12.372;2023-07-02T02:20:10;18.10;99.90
36374;DHT22;22399;51.346;12.372;2023-07-02T02:22:38;18.10;99.90
36374;DHT22;22399;51.346;12.372;2023-07-02T02:25:09;18.10;99.90
36374;DHT22;22399;51.346;12.372;2023-07-02T02:27:37;18.00;99.90
36374;DHT22;22399;51.346;12.372;2023-07-02T02:30:08;18.10;99.90
36374;DHT22;22399;51.346;12.372;2023-07-02T02:32:37;18.00;99.90
36374;DHT22;22399;51.346;12.372;2023-07-02T02:35:08;18.00;99.90
36374;DHT22;22399;51.346;12.372;2023-07-02T02:37:38;17.90;99.90
36374;DHT22;22399;51.346;12.372;2023-07-02T02:40:11;17.90;99.90
36374;DHT22;22399;51.346;12.372;2023-07-02T02:42:40;17.90;99.90
36374;DHT22;22399;51.346;12.372;2023-07-02T02:45:09;17.90;99.90
36374;DHT22;22399;51.346;12.372;2023-07-02T02:47:38;17.90;99.90
36374;DHT22;22399;51.346;12.372;2023-07-02T02:50:07;17.90;99.90
36374;DHT22;22399;51.346;12.372;2023-07-02T02:52:37;17.90;99.90
36374;DHT22;22399;51.346;12.372;2023-07-02T02:55:06;17.80;99.90
36374;DHT22;22399;51.346;12.372;2023-07-02T02:57:37;17.70;99.90
36374;DHT22;22399;51.346;12.372;2023-07-02T03:00:06;17.60;99.90
36374;DHT22;22399;51.346;12.372;2023-07-02T03:02:36;17.60;99.90
36374;DHT22;22399;51.346;12.372;2023-07-02T03:05:06;17.50;99.90
36374;DHT22;22399;51.346;12.372;2023-07-02T03:07:35;17.50;99.90
36374;DHT22;22399;51.346;12.372;2023-07-02T03:10:05;17.60;99.90
36374;DHT22;22399;51.346;12.372;2023-07-02T03:12:34;17.60;99.90
36374;DHT22;22399;51.346;12.372;2023-07-02T03:15:04;17.50;99.90
36374;DHT22;22399;51.346;12.372;2023-07-02T03:17:33;17.50;99.90
36374;DHT22;22399;51.346;12.372;2023-07-02T03:20:02;17.50;99.90
36374;DHT22;22399;51.346;12.372;2023-07-02T03:22:31;17.60;99.90
36374;DHT22;22399;51.346;12.372;2023-07-02T03:25:00;17.50;99.90
36374;DHT22;22399;51.346;12.372;2023-07-02T03:27:29;17.60;99.90
36374;DHT22;22399;51.346;12.372;2023-07-02T03:29:58;17.60;99.90
36374;DHT22;22399;51.346;12.372;2023-07-02T03:32:28;17.60;99.90
36374;DHT22;22399;51.346;12.372;2023-07-02T03:34:57;17.60;99.90
36374;DHT22;22399;51.346;12.372;2023-07-02T03:37:25;17.60;99.90
36374;DHT22;22399;51.346;12.372;2023-07-02T03:39:53;17.60;99.90
36374;DHT22;22399;51.346;12.372;2023-07-02T03:42:22;17.60;99.90
36374;DHT22;22399;51.346;12.372;2023-07-02T03:44:51;17.60;99.90
36374;DHT22;22399;51.346;12.372;2023-07-02T03:47:19;17.60;99.90
36374;DHT22;22399;51.346;12.372;2023-07-02T03:49:50;17.60;99.90
36374;DHT22;22399;51.346;12.372;2023-07-02T03:52:18;17.60;99.90
36374;DHT22;22399;51.346;12.372;2023-07-02T03:54:47;17.60;99.90
36374;DHT22;22399;51.346;12.372;2023-07-02T03:57:15;17.60;99.90
36374;DHT22;22399;51.346;12.372;2023-07-02T03:59:44;17.60;99.90
36374;DHT22;22399;51.346;12.372;2023-07-02T04:02:12;17.60;99.90
36374;DHT22;22399;51.346;12.372;2023-07-02T04:04:41;17.60;99.90
36374;DHT22;22399;51.346;12.372;2023-07-02T04:07:11;17.60;99.90
36374;DHT22;22399;51.346;12.372;2023-07-02T04:09:39;17.60;99.90
36374;DHT22;22399;51.346;12.372;2023-07-02T04:12:08;17.70;99.90
36374;DHT22;22399;51.346;12.372;2023-07-02T04:14:37;17.70;99.90
36374;DHT22;22399;51.346;12.372;2023-07-02T04:17:06;17.80;99.90
36374;DHT22;22399;51.346;12.372;2023-07-02T04:19:34;17.80;99.90
36374;DHT22;22399;51.346;12.372;2023-07-02T04:22:02;17.80;99.90
36374;DHT22;22399;51.346;12.372;2023-07-02T04:24:32;17.80;99.90
36374;DHT22;22399;51.346;12.372;2023-07-02T04:27:01;17.80;99.90
36374;DHT22;22399;51.346;12.372;2023-07-02T04:29:49;17.90;99.90
36374;DHT22;22399;51.346;12.372;2023-07-02T04:32:18;17.90;99.90
36374;DHT22;22399;51.346;12.372;2023-07-02T04:34:46;18.00;99.90
36374;DHT22;22399;51.346;12.372;2023-07-02T04:37:15;18.00;99.90
36374;DHT22;22399;51.346;12.372;2023-07-02T04:39:44;18.00;99.90
36374;DHT22;22399;51.346;12.372;2023-07-02T04:42:13;18.00;99.90
36374;DHT22;22399;51.346;12.372;2023-07-02T04:44:42;18.00;99.90
36374;DHT22;22399;51.346;12.372;2023-07-02T04:47:11;18.00;99.90
36374;DHT22;22399;51.346;12.372;2023-07-02T04:49:39;18.10;99.90
36374;DHT22;22399;51.346;12.372;2023-07-02T04:52:08;18.10;99.90
36374;DHT22;22399;51.346;12.372;2023-07-02T04:54:37;18.10;99.90
36374;DHT22;22399;51.346;12.372;2023-07-02T04:57:07;18.10;99.90
36374;DHT22;22399;51.346;12.372;2023-07-02T04:59:35;18.20;99.90
36374;DHT22;22399;51.346;12.372;2023-07-02T05:02:04;18.20;99.90
36374;DHT22;22399;51.346;12.372;2023-07-02T05:04:33;18.30;99.90
36374;DHT22;22399;51.346;12.372;2023-07-02T05:07:01;18.30;99.90
36374;DHT22;22399;51.346;12.372;2023-07-02T05:09:30;18.40;99.90
36374;DHT22;22399;51.346;12.372;2023-07-02T05:11:58;18.50;99.90
36374;DHT22;22399;51.346;12.372;2023-07-02T05:14:28;18.60;99.90
36374;DHT22;22399;51.346;12.372;2023-07-02T05:16:57;18.80;99.90
36374;DHT22;22399;51.346;12.372;2023-07-02T05:19:26;18.90;99.90
36374;DHT22;22399;51.346;12.372;2023-07-02T05:21:55;18.90;99.90
36374;DHT22;22399;51.346;12.372;2023-07-02T05:24:23;19.10;99.90
36374;DHT22;22399;51.346;12.372;2023-07-02T05:26:52;19.30;99.90
36374;DHT22;22399;51.346;12.372;2023-07-02T05:29:20;19.40;99.90
36374;DHT22;22399;51.346;12.372;2023-07-02T05:31:50;19.50;99.90
36374;DHT22;22399;51.346;12.372;2023-07-02T05:34:19;19.50;99.90
36374;DHT22;22399;51.346;12.372;2023-07-02T05:36:47;19.50;99.90
36374;DHT22;22399;51.346;12.372;2023-07-02T05:39:16;19.50;99.90
36374;DHT22;22399;51.346;12.372;2023-07-02T05:41:44;19.60;99.90
36374;DHT22;22399;51.346;12.372;2023-07-02T05:44:12;19.70;99.90
36374;DHT22;22399;51.346;12.372;2023-07-02T05:46:41;19.80;99.90
36374;DHT22;22399;51.346;12.372;2023-07-02T05:49:11;20.10;99.90
36374;DHT22;22399;51.346;12.372;2023-07-02T05:51:39;20.30;99.90
36374;DHT22;22399;51.346;12.372;2023-07-02T05:54:08;20.30;99.90
36374;DHT22;22399;51.346;12.372;2023-07-02T05:56:36;20.10;99.90
36374;DHT22;22399;51.346;12.372;2023-07-02T05:59:05;20.00;99.90
36374;DHT22;22399;51.346;12.372;2023-07-02T06:01:33;19.90;99.90
36374;DHT22;22399;51.346;12.372;2023-07-02T06:04:01;20.10;99.90
36374;DHT22;22399;51.346;12.372;2023-07-02T06:06:31;20.30;99.90
36374;DHT22;22399;51.346;12.372;2023-07-02T06:09:00;20.80;99.90
36374;DHT22;22399;51.346;12.372;2023-07-02T06:11:28;21.40;99.90
36374;DHT22;22399;51.346;12.372;2023-07-02T06:13:57;21.90;99.90
36374;DHT22;22399;51.346;12.372;2023-07-02T06:16:25;22.20;99.90
36374;DHT22;22399;51.346;12.372;2023-07-02T06:18:54;21.80;99.90
36374;DHT22;22399;51.346;12.372;2023-07-02T06:21:22;22.90;99.90
36374;DHT22;22399;51.346;12.372;2023-07-02T06:23:58;23.40;98.00
36374;DHT22;22399;51.346;12.372;2023-07-02T06:26:26;24.50;94.80
36374;DHT22;22399;51.346;12.372;2023-07-02T06:28:55;23.90;91.60
36374;DHT22;22399;51.346;12.372;2023-07-02T06:31:24;23.40;93.30
36374;DHT22;22399;51.346;12.372;2023-07-02T06:33:52;23.20;93.00
36374;DHT22;22399;51.346;12.372;2023-07-02T06:36:21;24.20;92.40
36374;DHT22;22399;51.346;12.372;2023-07-02T06:38:49;24.60;90.40
36374;DHT22;22399;51.346;12.372;2023-07-02T06:41:19;26.10;87.60
36374;DHT22;22399;51.346;12.372;2023-07-02T06:43:47;26.20;84.50
36374;DHT22;22399;51.346;12.372;2023-07-02T06:46:16;26.20;82.80
36374;DHT22;22399;51.346;12.372;2023-07-02T06:48:45;25.60;82.60
36374;DHT22;22399;51.346;12.372;2023-07-02T06:51:13;25.20;84.10
36374;DHT22;22399;51.346;12.372;2023-07-02T06:53:42;24.40;84.00
36374;DHT22;22399;51.346;12.372;2023-07-02T06:56:10;24.80;83.70
36374;DHT22;22399;51.346;12.372;2023-07-02T06:58:42;25.10;81.70
36374;DHT22;22399;51.346;12.372;2023-07-02T07:01:11;25.50;82.60
36374;DHT22;22399;51.346;12.372;2023-07-02T07:03:39;25.30;79.30
36374;DHT22;22399;51.346;12.372;2023-07-02T07:06:08;25.10;82.10
36374;DHT22;22399;51.346;12.372;2023-07-02T07:08:37;25.90;80.30
36374;DHT22;22399;51.346;12.372;2023-07-02T07:11:07;25.90;76.90
36374;DHT22;22399;51.346;12.372;2023-07-02T07:13:35;26.00;77.50
36374;DHT22;22399;51.346;12.372;2023-07-02T07:16:05;26.30;75.50
36374;DHT22;22399;51.346;12.372;2023-07-02T07:18:33;26.10;75.30
36374;DHT22;22399;51.346;12.372;2023-07-02T07:21:02;25.10;75.40
36374;DHT22;22399;51.346;12.372;2023-07-02T07:23:30;24.80;77.30
36374;DHT22;22399;51.346;12.372;2023-07-02T07:25:59;25.20;78.30
36374;DHT22;22399;51.346;12.372;2023-07-02T07:28:27;26.20;75.30
36374;DHT22;22399;51.346;12.372;2023-07-02T07:30:56;26.20;72.80
36374;DHT22;22399;51.346;12.372;2023-07-02T07:33:26;26.30;72.70
36374;DHT22;22399;51.346;12.372;2023-07-02T07:35:54;25.30;72.40
36374;DHT22;22399;51.346;12.372;2023-07-02T07:38:22;24.40;74.80
36374;DHT22;22399;51.346;12.372;2023-07-02T07:40:51;23.60;76.40
36374;DHT22;22399;51.346;12.372;2023-07-02T07:43:19;22.80;77.20
36374;DHT22;22399;51.346;12.372;2023-07-02T07:45:48;22.60;79.40
36374;DHT22;22399;51.346;12.372;2023-07-02T07:48:17;22.80;80.40
36374;DHT22;22399;51.346;12.372;2023-07-02T07:50:46;23.10;80.00
36374;DHT22;22399;51.346;12.372;2023-07-02T07:53:16;23.60;79.40
36374;DHT22;22399;51.346;12.372;2023-07-02T07:55:45;23.90;76.30
36374;DHT22;22399;51.346;12.372;2023-07-02T07:58:13;23.90;75.60
36374;DHT22;22399;51.346;12.372;2023-07-02T08:00:42;23.80;75.60
36374;DHT22;22399;51.346;12.372;2023-07-02T08:03:10;23.70;75.30
36374;DHT22;22399;51.346;12.372;2023-07-02T08:05:39;23.50;74.70
36374;DHT22;22399;51.346;12.372;2023-07-02T08:08:08;23.20;74.50
36374;DHT22;22399;51.346;12.372;2023-07-02T08:10:37;22.80;74.80
36374;DHT22;22399;51.346;12.372;2023-07-02T08:13:05;22.70;75.40
36374;DHT22;22399;51.346;12.372;2023-07-02T08:15:34;22.60;75.30
36374;DHT22;22399;51.346;12.372;2023-07-02T08:18:02;22.50;75.10
36374;DHT22;22399;51.346;12.372;2023-07-02T08:20:31;22.40;75.00
36374;DHT22;22399;51.346;12.372;2023-07-02T08:22:59;22.30;74.90
36374;DHT22;22399;51.346;12.372;2023-07-02T08:25:29;22.30;75.10
36374;DHT22;22399;51.346;12.372;2023-07-02T08:27:58;22.40;74.60
36374;DHT22;22399;51.346;12.372;2023-07-02T08:30:26;22.50;74.20
36374;DHT22;22399;51.346;12.372;2023-07-02T08:32:55;22.70;74.20
36374;DHT22;22399;51.346;12.372;2023-07-02T08:35:23;22.60;73.60
36374;DHT22;22399;51.346;12.372;2023-07-02T08:37:52;22.50;73.60
36374;DHT22;22399;51.346;12.372;2023-07-02T08:40:21;22.50;73.70
36374;DHT22;22399;51.346;12.372;2023-07-02T08:42:51;22.70;73.40
36374;DHT22;22399;51.346;12.372;2023-07-02T08:45:20;23.00;73.00
36374;DHT22;22399;51.346;12.372;2023-07-02T08:47:51;23.20;71.90
36374;DHT22;22399;51.346;12.372;2023-07-02T08:50:23;23.00;71.00
36374;DHT22;22399;51.346;12.372;2023-07-02T08:52:54;23.00;71.30
36374;DHT22;22399;51.346;12.372;2023-07-02T08:55:22;22.90;71.20
36374;DHT22;22399;51.346;12.372;2023-07-02T08:57:54;22.90;71.70
36374;DHT22;22399;51.346;12.372;2023-07-02T09:00:23;22.80;71.90
36374;DHT22;22399;51.346;12.372;2023-07-02T09:02:51;22.70;71.70
36374;DHT22;22399;51.346;12.372;2023-07-02T09:05:19;22.40;72.00
36374;DHT22;22399;51.346;12.372;2023-07-02T09:07:49;22.20;72.40
36374;DHT22;22399;51.346;12.372;2023-07-02T09:10:28;22.10;72.70
36374;DHT22;22399;51.346;12.372;2023-07-02T09:13:06;22.30;72.80
36374;DHT22;22399;51.346;12.372;2023-07-02T09:15:37;22.40;72.40
36374;DHT22;22399;51.346;12.372;2023-07-02T09:18:19;22.40;72.20
36374;DHT22;22399;51.346;12.372;2023-07-02T09:20:50;22.20;72.40
36374;DHT22;22399;51.346;12.372;2023-07-02T09:23:19;22.10;72.60
36374;DHT22;22399;51.346;12.372;2023-07-02T09:25:48;21.90;73.00
36374;DHT22;22399;51.346;12.372;2023-07-02T09:28:21;22.00;73.30
36374;DHT22;22399;51.346;12.372;2023-07-02T09:30:53;22.20;73.40
36374;DHT22;22399;51.346;12.372;2023-07-02T09:33:23;22.50;73.10
36374;DHT22;22399;51.346;12.372;2023-07-02T09:35:52;23.20;72.50
36374;DHT22;22399;51.346;12.372;2023-07-02T09:38:21;24.30;71.20
36374;DHT22;22399;51.346;12.372;2023-07-02T09:40:51;25.10;69.60
36374;DHT22;22399;51.346;12.372;2023-07-02T09:43:21;25.50;68.50
36374;DHT22;22399;51.346;12.372;2023-07-02T09:45:52;25.30;68.40
36374;DHT22;22399;51.346;12.372;2023-07-02T09:48:24;25.00;68.40
36374;DHT22;22399;51.346;12.372;2023-07-02T09:50:54;24.90;68.70
36374;DHT22;22399;51.346;12.372;2023-07-02T09:53:22;24.70;69.00
36374;DHT22;22399;51.346;12.372;2023-07-02T09:55:50;24.60;69.60
36374;DHT22;22399;51.346;12.372;2023-07-02T09:58:20;24.40;70.00
36374;DHT22;22399;51.346;12.372;2023-07-02T10:00:50;24.20;70.00
36374;DHT22;22399;51.346;12.372;2023-07-02T10:03:28;23.90;69.60
36374;DHT22;22399;51.346;12.372;2023-07-02T10:06:04;23.80;70.40
36374;DHT22;22399;51.346;12.372;2023-07-02T10:08:33;23.80;70.30
36374;DHT22;22399;51.346;12.372;2023-07-02T10:11:09;24.00;70.00
36374;DHT22;22399;51.346;12.372;2023-07-02T10:13:39;24.50;70.00
36374;DHT22;22399;51.346;12.372;2023-07-02T10:16:08;25.00;68.90
36374;DHT22;22399;51.346;12.372;2023-07-02T10:18:37;25.10;67.80
36374;DHT22;22399;51.346;12.372;2023-07-02T10:21:15;25.70;67.80
36374;DHT22;22399;51.346;12.372;2023-07-02T10:23:44;25.70;66.40
36374;DHT22;22399;51.346;12.372;2023-07-02T10:26:14;25.70;65.50
36374;DHT22;22399;51.346;12.372;2023-07-02T10:28:56;25.90;65.70
36374;DHT22;22399;51.346;12.372;2023-07-02T10:31:24;26.20;65.30
36374;DHT22;22399;51.346;12.372;2023-07-02T10:33:53;26.50;64.00
36374;DHT22;22399;51.346;12.372;2023-07-02T10:36:23;26.60;63.50
36374;DHT22;22399;51.346;12.372;2023-07-02T10:38:52;26.80;63.30
36374;DHT22;22399;51.346;12.372;2023-07-02T10:41:24;27.50;63.70
36374;DHT22;22399;51.346;12.372;2023-07-02T10:44:05;27.50;62.50
36374;DHT22;22399;51.346;12.372;2023-07-02T10:46:34;28.00;63.10
36374;DHT22;22399;51.346;12.372;2023-07-02T10:49:03;28.00;61.50
36374;DHT22;22399;51.346;12.372;2023-07-02T10:51:31;28.00;60.90
36374;DHT22;22399;51.346;12.372;2023-07-02T10:54:01;28.30;60.50
36374;DHT22;22399;51.346;12.372;2023-07-02T10:56:32;28.70;60.00
36374;DHT22;22399;51.346;12.372;2023-07-02T10:59:01;28.30;59.50
36374;DHT22;22399;51.346;12.372;2023-07-02T11:01:30;27.20;59.50
36374;DHT22;22399;51.346;12.372;2023-07-02T11:04:01;26.50;60.60
36374;DHT22;22399;51.346;12.372;2023-07-02T11:06:29;25.90;61.80
36374;DHT22;22399;51.346;12.372;2023-07-02T11:09:00;25.40;63.00
36374;DHT22;22399;51.346;12.372;2023-07-02T11:11:28;25.20;63.30
36374;DHT22;22399;51.346;12.372;2023-07-02T11:13:57;25.10;63.40
36374;DHT22;22399;51.346;12.372;2023-07-02T11:16:28;25.10;63.30
36374;DHT22;22399;51.346;12.372;2023-07-02T11:19:06;25.40;63.30
36374;DHT22;22399;51.346;12.372;2023-07-02T11:21:36;25.40;62.60
36374;DHT22;22399;51.346;12.372;2023-07-02T11:24:06;25.30;62.20
36374;DHT22;22399;51.346;12.372;2023-07-02T11:26:36;25.10;62.20
36374;DHT22;22399;51.346;12.372;2023-07-02T11:29:07;25.00;62.40
36374;DHT22;22399;51.346;12.372;2023-07-02T11:31:38;25.40;62.80
36374;DHT22;22399;51.346;12.372;2023-07-02T11:34:12;25.90;62.30
36374;DHT22;22399;51.346;12.372;2023-07-02T11:36:42;25.90;61.30
36374;DHT22;22399;51.346;12.372;2023-07-02T11:39:11;26.00;61.20
36374;DHT22;22399;51.346;12.372;2023-07-02T11:41:42;26.30;61.30
36374;DHT22;22399;51.346;12.372;2023-07-02T11:44:10;26.60;60.60
36374;DHT22;22399;51.346;12.372;2023-07-02T11:46:40;26.80;60.50
36374;DHT22;22399;51.346;12.372;2023-07-02T11:49:08;26.60;59.80
36374;DHT22;22399;51.346;12.372;2023-07-02T11:51:38;26.90;59.90
36374;DHT22;22399;51.346;12.372;2023-07-02T11:54:07;27.30;59.50
36374;DHT22;22399;51.346;12.372;2023-07-02T11:56:35;27.60;59.20
36374;DHT22;22399;51.346;12.372;2023-07-02T11:59:05;27.60;58.90
36374;DHT22;22399;51.346;12.372;2023-07-02T12:01:34;27.60;58.60
36374;DHT22;22399;51.346;12.372;2023-07-02T12:04:04;27.40;58.40
36374;DHT22;22399;51.346;12.372;2023-07-02T12:06:35;27.30;58.90
36374;DHT22;22399;51.346;12.372;2023-07-02T12:09:03;27.60;58.90
36374;DHT22;22399;51.346;12.372;2023-07-02T12:11:32;27.70;58.40
36374;DHT22;22399;51.346;12.372;2023-07-02T12:14:00;27.70;58.20
36374;DHT22;22399;51.346;12.372;2023-07-02T12:16:28;27.90;58.30
36374;DHT22;22399;51.346;12.372;2023-07-02T12:18:57;27.80;57.50
36374;DHT22;22399;51.346;12.372;2023-07-02T12:21:26;27.80;57.00
36374;DHT22;22399;51.346;12.372;2023-07-02T12:23:55;27.70;57.10
36374;DHT22;22399;51.346;12.372;2023-07-02T12:26:23;27.40;57.00
36374;DHT22;22399;51.346;12.372;2023-07-02T12:28:52;27.20;56.90
36374;DHT22;22399;51.346;12.372;2023-07-02T12:31:20;27.20;56.50
36374;DHT22;22399;51.346;12.372;2023-07-02T12:33:49;26.80;56.10
36374;DHT22;22399;51.346;12.372;2023-07-02T12:36:18;26.80;57.00
36374;DHT22;22399;51.346;12.372;2023-07-02T12:38:48;26.90;56.90
36374;DHT22;22399;51.346;12.372;2023-07-02T12:41:16;26.70;56.80
36374;DHT22;22399;51.346;12.372;2023-07-02T12:43:44;26.60;56.60
36374;DHT22;22399;51.346;12.372;2023-07-02T12:46:13;26.80;56.50
36374;DHT22;22399;51.346;12.372;2023-07-02T12:48:41;26.50;55.90
36374;DHT22;22399;51.346;12.372;2023-07-02T12:51:10;26.10;56.00
36374;DHT22;22399;51.346;12.372;2023-07-02T12:53:39;26.30;56.20
36374;DHT22;22399;51.346;12.372;2023-07-02T12:56:09;26.30;55.50
36374;DHT22;22399;51.346;12.372;2023-07-02T12:58:37;26.20;55.90
36374;DHT22;22399;51.346;12.372;2023-07-02T13:01:06;26.10;55.80
36374;DHT22;22399;51.346;12.372;2023-07-02T13:03:34;26.00;55.20
36374;DHT22;22399;51.346;12.372;2023-07-02T13:06:03;26.20;54.80
36374;DHT22;22399;51.346;12.372;2023-07-02T13:08:31;27.00;53.80
36374;DHT22;22399;51.346;12.372;2023-07-02T13:11:00;27.60;53.00
36374;DHT22;22399;51.346;12.372;2023-07-02T13:13:29;27.90;52.80
36374;DHT22;22399;51.346;12.372;2023-07-02T13:15:58;27.70;52.20
36374;DHT22;22399;51.346;12.372;2023-07-02T13:18:26;27.00;52.80
36374;DHT22;22399;51.346;12.372;2023-07-02T13:20:55;26.70;53.80
36374;DHT22;22399;51.346;12.372;2023-07-02T13:23:23;26.90;54.00
36374;DHT22;22399;51.346;12.372;2023-07-02T13:25:52;26.90;54.20
36374;DHT22;22399;51.346;12.372;2023-07-02T13:28:21;27.60;53.40
36374;DHT22;22399;51.346;12.372;2023-07-02T13:30:52;28.10;52.90
36374;DHT22;22399;51.346;12.372;2023-07-02T13:33:20;28.60;52.70
36374;DHT22;22399;51.346;12.372;2023-07-02T13:35:48;29.40;51.90
36374;DHT22;22399;51.346;12.372;2023-07-02T13:38:17;29.70;51.20
36374;DHT22;22399;51.346;12.372;2023-07-02T13:40:45;30.00;51.10
36374;DHT22;22399;51.346;12.372;2023-07-02T13:43:14;29.10;51.80
36374;DHT22;22399;51.346;12.372;2023-07-02T13:45:42;28.20;52.50
36374;DHT22;22399;51.346;12.372;2023-07-02T13:48:12;28.70;51.80
36374;DHT22;22399;51.346;12.372;2023-07-02T13:50:41;28.00;52.20
36374;DHT22;22399;51.346;12.372;2023-07-02T13:53:10;27.60;52.20
36374;DHT22;22399;51.346;12.372;2023-07-02T13:55:38;27.50;52.60
36374;DHT22;22399;51.346;12.372;2023-07-02T13:58:07;27.00;52.60
36374;DHT22;22399;51.346;12.372;2023-07-02T14:00:37;26.60;53.80
36374;DHT22;22399;51.346;12.372;2023-07-02T14:03:06;26.30;53.40
36374;DHT22;22399;51.346;12.372;2023-07-02T14:05:34;26.00;53.50
36374;DHT22;22399;51.346;12.372;2023-07-02T14:08:03;26.10;53.60
36374;DHT22;22399;51.346;12.372;2023-07-02T14:10:31;26.20;53.50
36374;DHT22;22399;51.346;12.372;2023-07-02T14:13:00;25.90;53.80
36374;DHT22;22399;51.346;12.372;2023-07-02T14:15:28;25.80;53.80
36374;DHT22;22399;51.346;12.372;2023-07-02T14:17:59;26.00;54.10
36374;DHT22;22399;51.346;12.372;2023-07-02T14:20:27;26.00;54.10
36374;DHT22;22399;51.346;12.372;2023-07-02T14:22:56;25.90;54.20
36374;DHT22;22399;51.346;12.372;2023-07-02T14:25:24;25.70;54.10
36374;DHT22;22399;51.346;12.372;2023-07-02T14:28:08;25.50;54.10
36374;DHT22;22399;51.346;12.372;2023-07-02T14:30:37;25.50;54.40
36374;DHT22;22399;51.346;12.372;2023-07-02T14:33:07;25.70;54.30
36374;DHT22;22399;51.346;12.372;2023-07-02T14:35:36;25.80;54.20
36374;DHT22;22399;51.346;12.372;2023-07-02T14:38:05;25.70;54.00
36374;DHT22;22399;51.346;12.372;2023-07-02T14:40:33;25.70;54.40
36374;DHT22;22399;51.346;12.372;2023-07-02T14:43:02;25.50;53.80
36374;DHT22;22399;51.346;12.372;2023-07-02T14:45:32;25.40;54.10
36374;DHT22;22399;51.346;12.372;2023-07-02T14:48:00;25.40;54.10
36374;DHT22;22399;51.346;12.372;2023-07-02T14:50:30;25.40;53.80
36374;DHT22;22399;51.346;12.372;2023-07-02T14:52:59;25.20;53.80
36374;DHT22;22399;51.346;12.372;2023-07-02T14:55:27;25.10;54.50
36374;DHT22;22399;51.346;12.372;2023-07-02T14:57:56;25.30;53.90
36374;DHT22;22399;51.346;12.372;2023-07-02T15:00:24;25.70;53.90
36374;DHT22;22399;51.346;12.372;2023-07-02T15:02:53;25.70;53.40
36374;DHT22;22399;51.346;12.372;2023-07-02T15:05:21;25.60;53.50
36374;DHT22;22399;51.346;12.372;2023-07-02T15:07:51;25.50;53.60
36374;DHT22;22399;51.346;12.372;2023-07-02T15:10:19;25.50;53.70
36374;DHT22;22399;51.346;12.372;2023-07-02T15:12:48;25.60;53.80
36374;DHT22;22399;51.346;12.372;2023-07-02T15:15:16;25.60;53.80
36374;DHT22;22399;51.346;12.372;2023-07-02T15:17:45;25.50;53.80
36374;DHT22;22399;51.346;12.372;2023-07-02T15:20:13;25.60;53.70
36374;DHT22;22399;51.346;12.372;2023-07-02T15:22:42;25.50;53.60
36374;DHT22;22399;51.346;12.372;2023-07-02T15:25:12;25.30;53.60
36374;DHT22;22399;51.346;12.372;2023-07-02T15:27:40;25.10;53.90